createdAt,value
2022-07-30T00:01:48.228Z,16.60
2022-07-30T00:05:06.215Z,16.60
2022-07-30T00:07:33.555Z,16.60
2022-07-30T00:10:00.609Z,16.60
2022-07-30T00:12:27.623Z,16.50
2022-07-30T00:14:54.657Z,16.50
2022-07-30T00:17:21.621Z,16.50
2022-07-30T00:19:49.661Z,16.40
2022-07-30T00:22:17.577Z,16.40
2022-07-30T00:24:44.634Z,16.40
2022-07-30T00:27:11.697Z,16.40
2022-07-30T00:29:45.005Z,16.30
2022-07-30T00:32:12.236Z,16.20
2022-07-30T00:34:39.276Z,16.00
2022-07-30T00:37:06.418Z,15.90
2022-07-30T00:39:33.518Z,15.80
2022-07-30T00:42:02.679Z,15.70
2022-07-30T00:44:30.668Z,15.70
2022-07-30T00:46:58.855Z,15.70
2022-07-30T00:49:27.184Z,15.70
2022-07-30T00:51:54.560Z,15.70
2022-07-30T00:54:22.293Z,15.70
2022-07-30T00:56:49.669Z,15.60
2022-07-30T00:59:17.097Z,15.60
2022-07-30T01:01:44.163Z,15.60
2022-07-30T01:04:11.920Z,15.60
2022-07-30T01:06:41.994Z,15.60
2022-07-30T01:09:09.155Z,15.60
2022-07-30T01:11:38.722Z,15.60
2022-07-30T01:14:07.003Z,15.60
2022-07-30T01:16:39.097Z,15.60
2022-07-30T01:19:30.424Z,15.60
2022-07-30T01:22:27.852Z,15.60
2022-07-30T01:25:03.515Z,15.60
2022-07-30T01:27:33.601Z,15.60
2022-07-30T01:30:04.876Z,15.60
2022-07-30T01:32:34.346Z,15.60
2022-07-30T01:35:04.203Z,15.60
2022-07-30T01:37:34.222Z,15.60
2022-07-30T01:40:01.704Z,15.60
2022-07-30T01:42:30.856Z,15.50
2022-07-30T01:44:59.404Z,15.50
2022-07-30T01:47:29.998Z,15.50
2022-07-30T01:49:59.046Z,15.50
2022-07-30T01:52:31.068Z,15.40
2022-07-30T01:54:59.269Z,15.50
2022-07-30T01:57:26.687Z,15.50
2022-07-30T02:00:01.729Z,15.50
2022-07-30T02:02:30.712Z,15.50
2022-07-30T02:04:57.741Z,15.50
2022-07-30T02:07:42.265Z,15.50
2022-07-30T02:10:17.763Z,15.50
2022-07-30T02:12:52.423Z,15.50
2022-07-30T02:15:30.396Z,15.50
2022-07-30T02:18:39.653Z,15.40
2022-07-30T02:21:09.450Z,15.40
2022-07-30T02:23:41.903Z,15.40
2022-07-30T02:26:12.869Z,15.40
2022-07-30T02:28:44.019Z,15.30
2022-07-30T02:31:17.464Z,15.30
2022-07-30T02:33:49.647Z,15.30
2022-07-30T02:36:19.397Z,15.30
2022-07-30T02:38:50.888Z,15.30
2022-07-30T02:41:24.925Z,15.20
2022-07-30T02:43:53.472Z,15.20
2022-07-30T02:46:24.329Z,15.20
2022-07-30T02:49:11.386Z,15.10
2022-07-30T02:51:41.036Z,15.10
2022-07-30T02:54:10.112Z,15.00
2022-07-30T02:56:40.778Z,15.00
2022-07-30T02:59:12.255Z,15.00
2022-07-30T03:01:39.627Z,15.00
2022-07-30T03:04:08.673Z,14.90
2022-07-30T03:06:37.415Z,14.90
2022-07-30T03:09:05.660Z,14.80
2022-07-30T03:11:34.555Z,14.80
2022-07-30T03:14:01.890Z,14.80
2022-07-30T03:16:31.172Z,14.80
2022-07-30T03:19:02.613Z,14.80
2022-07-30T03:21:35.690Z,14.80
2022-07-30T03:24:05.247Z,14.80
2022-07-30T03:26:35.119Z,14.90
2022-07-30T03:29:03.248Z,14.90
2022-07-30T03:31:36.249Z,15.00
2022-07-30T03:34:07.762Z,15.00
2022-07-30T03:36:36.055Z,15.00
2022-07-30T03:39:05.330Z,15.10
2022-07-30T03:41:33.670Z,15.00
2022-07-30T03:44:02.217Z,15.00
2022-07-30T03:46:31.606Z,15.00
2022-07-30T03:49:00.442Z,14.90
2022-07-30T03:51:33.062Z,14.90
2022-07-30T03:54:01.733Z,14.90
2022-07-30T03:56:41.213Z,14.80
2022-07-30T03:59:15.670Z,14.80
2022-07-30T04:01:43.460Z,14.80
2022-07-30T04:04:25.105Z,14.80
2022-07-30T04:06:52.207Z,14.90
2022-07-30T04:09:20.622Z,15.00
2022-07-30T04:11:48.820Z,15.00
2022-07-30T04:14:25.332Z,15.10
2022-07-30T04:17:00.911Z,15.10
2022-07-30T04:19:34.643Z,15.20
2022-07-30T04:22:03.284Z,15.20
2022-07-30T04:24:33.406Z,15.20
2022-07-30T04:27:02.737Z,15.30
2022-07-30T04:30:36.405Z,15.30
2022-07-30T04:33:06.026Z,15.30
2022-07-30T04:36:08.058Z,15.30
2022-07-30T04:38:38.529Z,15.40
2022-07-30T04:41:05.641Z,15.40
2022-07-30T04:43:52.562Z,15.40
2022-07-30T04:46:24.720Z,15.40
2022-07-30T04:48:53.445Z,15.50
2022-07-30T04:51:32.725Z,15.50
2022-07-30T04:54:01.896Z,15.50
2022-07-30T04:56:30.786Z,15.50
2022-07-30T04:58:59.196Z,15.50
2022-07-30T05:01:39.285Z,15.50
2022-07-30T05:04:11.394Z,15.50
2022-07-30T05:06:39.827Z,15.60
2022-07-30T05:09:07.204Z,15.60
2022-07-30T05:11:34.607Z,15.60
2022-07-30T05:14:01.836Z,15.60
2022-07-30T05:16:29.867Z,15.70
2022-07-30T05:18:59.186Z,15.70
2022-07-30T05:21:29.028Z,15.80
2022-07-30T05:23:57.347Z,15.80
2022-07-30T05:26:33.613Z,15.90
2022-07-30T05:29:01.246Z,15.90
2022-07-30T05:31:47.933Z,16.00
2022-07-30T05:34:15.217Z,16.00
2022-07-30T05:36:45.289Z,16.00
2022-07-30T05:39:14.889Z,16.10
2022-07-30T05:42:00.613Z,16.20
2022-07-30T05:44:36.876Z,16.20
2022-07-30T05:47:04.065Z,16.30
2022-07-30T05:49:31.186Z,16.40
2022-07-30T05:52:06.382Z,16.40
2022-07-30T05:54:33.558Z,16.40
2022-07-30T05:57:12.364Z,16.50
2022-07-30T05:59:40.420Z,16.60
2022-07-30T06:02:09.202Z,16.70
2022-07-30T06:05:02.859Z,16.70
2022-07-30T06:07:31.047Z,16.80
2022-07-30T06:10:02.694Z,16.90
2022-07-30T06:12:30.191Z,16.90
2022-07-30T06:14:58.274Z,17.00
2022-07-30T06:17:29.712Z,17.00
2022-07-30T06:20:20.444Z,17.10
2022-07-30T06:23:06.006Z,17.20
2022-07-30T06:26:02.373Z,17.20
2022-07-30T06:28:38.751Z,17.30
2022-07-30T06:31:15.281Z,17.40
2022-07-30T06:33:43.352Z,17.50
2022-07-30T06:36:14.155Z,17.60
2022-07-30T06:39:07.306Z,17.60
2022-07-30T06:41:54.656Z,17.70
2022-07-30T06:44:21.764Z,17.80
2022-07-30T06:47:21.792Z,17.90
2022-07-30T06:49:48.819Z,18.00
2022-07-30T06:52:18.768Z,18.00
2022-07-30T06:54:51.030Z,18.10
2022-07-30T06:57:25.006Z,18.20
2022-07-30T06:59:56.097Z,18.30
2022-07-30T07:02:44.908Z,18.30
2022-07-30T07:05:14.055Z,18.40
2022-07-30T07:07:56.550Z,18.50
2022-07-30T07:10:27.559Z,18.60
2022-07-30T07:13:13.708Z,18.70
2022-07-30T07:15:41.398Z,18.80
2022-07-30T07:18:12.945Z,18.90
2022-07-30T07:20:46.708Z,18.90
2022-07-30T07:23:13.837Z,19.00
2022-07-30T07:25:42.137Z,19.10
2022-07-30T07:28:11.199Z,19.10
2022-07-30T07:30:43.441Z,19.30
2022-07-30T07:33:12.645Z,19.30
2022-07-30T07:35:49.006Z,19.40
2022-07-30T07:38:36.845Z,19.50
2022-07-30T07:41:05.617Z,19.70
2022-07-30T07:43:33.773Z,19.70
2022-07-30T07:46:02.690Z,19.80
2022-07-30T07:48:32.943Z,19.80
2022-07-30T07:51:46.789Z,19.90
2022-07-30T07:54:21.006Z,20.00
2022-07-30T07:56:52.956Z,20.20
2022-07-30T07:59:36.276Z,20.40
2022-07-30T08:02:10.823Z,20.40
2022-07-30T08:04:50.384Z,20.60
2022-07-30T08:07:46.131Z,20.70
2022-07-30T08:10:22.437Z,20.80
2022-07-30T08:13:07.878Z,20.90
2022-07-30T08:16:14.653Z,21.00
2022-07-30T08:19:00.087Z,21.10
2022-07-30T08:21:53.438Z,21.10
2022-07-30T08:24:20.608Z,21.10
2022-07-30T08:26:47.725Z,21.10
2022-07-30T08:29:17.242Z,21.20
2022-07-30T08:31:45.462Z,21.30
2022-07-30T08:34:13.588Z,21.40
2022-07-30T08:36:41.491Z,21.60
2022-07-30T08:39:08.858Z,21.70
2022-07-30T08:41:39.519Z,21.80
2022-07-30T08:44:12.858Z,21.90
2022-07-30T08:46:47.282Z,22.00
2022-07-30T08:49:29.642Z,22.00
2022-07-30T08:51:57.675Z,22.10
2022-07-30T08:54:47.519Z,22.10
2022-07-30T08:57:15.228Z,22.10
2022-07-30T08:59:59.954Z,22.20
2022-07-30T09:02:31.922Z,22.30
2022-07-30T09:05:05.302Z,22.50
2022-07-30T09:07:34.267Z,22.70
2022-07-30T09:10:03.582Z,22.80
2022-07-30T09:12:40.540Z,22.80
2022-07-30T09:15:20.898Z,22.90
2022-07-30T09:18:00.737Z,22.80
2022-07-30T09:20:33.855Z,22.70
2022-07-30T09:23:04.265Z,22.90
2022-07-30T09:25:50.911Z,23.20
2022-07-30T09:28:36.196Z,23.50
2022-07-30T09:31:16.393Z,23.70
2022-07-30T09:34:02.047Z,23.90
2022-07-30T09:36:48.075Z,24.20
2022-07-30T09:39:39.170Z,24.20
2022-07-30T09:42:27.841Z,24.30
2022-07-30T09:45:12.509Z,24.50
2022-07-30T09:47:50.557Z,24.60
2022-07-30T09:50:30.133Z,24.50
2022-07-30T09:53:08.886Z,24.60
2022-07-30T09:55:41.896Z,24.80
2022-07-30T09:58:12.981Z,25.00
2022-07-30T10:00:47.356Z,25.00
2022-07-30T10:03:33.904Z,25.00
2022-07-30T10:06:38.203Z,24.80
2022-07-30T10:09:37.401Z,24.70
2022-07-30T10:12:10.459Z,24.40
2022-07-30T10:14:44.230Z,24.20
2022-07-30T10:17:13.851Z,24.00
2022-07-30T10:19:47.193Z,24.20
2022-07-30T10:22:35.849Z,24.50
2022-07-30T10:25:28.062Z,24.80
2022-07-30T10:28:14.566Z,24.80
2022-07-30T10:30:45.460Z,24.80
2022-07-30T10:33:34.478Z,24.80
2022-07-30T10:36:02.535Z,24.80
2022-07-30T10:38:34.436Z,24.90
2022-07-30T10:41:42.563Z,25.10
2022-07-30T10:44:19.881Z,25.30
2022-07-30T10:47:10.617Z,25.70
2022-07-30T10:49:41.662Z,26.00
2022-07-30T10:52:11.161Z,26.20
2022-07-30T10:54:45.199Z,26.40
2022-07-30T10:57:22.676Z,26.50
2022-07-30T10:59:55.677Z,26.60
2022-07-30T11:02:28.915Z,26.70
2022-07-30T11:05:27.301Z,26.80
2022-07-30T11:08:42.659Z,26.60
2022-07-30T11:12:01.160Z,26.40
2022-07-30T11:14:09.488Z,26.30
2022-07-30T11:16:36.982Z,26.20
2022-07-30T11:19:55.638Z,26.30
2022-07-30T11:22:25.579Z,26.50
2022-07-30T11:24:52.935Z,26.80
2022-07-30T11:27:48.455Z,26.90
2022-07-30T11:30:23.674Z,27.20
2022-07-30T11:32:53.261Z,27.30
2022-07-30T11:35:34.604Z,27.30
2022-07-30T11:38:13.921Z,27.10
2022-07-30T11:40:46.796Z,27.10
2022-07-30T11:43:20.196Z,27.20
2022-07-30T11:45:52.427Z,27.30
2022-07-30T11:48:20.884Z,27.10
2022-07-30T11:50:48.751Z,27.00
2022-07-30T11:53:20.926Z,26.90
2022-07-30T11:55:59.055Z,26.80
2022-07-30T11:58:27.660Z,26.80
2022-07-30T12:00:57.188Z,26.90
2022-07-30T12:03:31.903Z,26.90
2022-07-30T12:06:07.544Z,27.00
2022-07-30T12:08:42.360Z,27.10
2022-07-30T12:11:09.664Z,27.10
2022-07-30T12:13:45.379Z,27.30
2022-07-30T12:16:17.612Z,27.50
2022-07-30T12:18:46.462Z,27.90
2022-07-30T12:21:16.862Z,28.10
2022-07-30T12:23:55.662Z,28.20
2022-07-30T12:26:26.714Z,28.40
2022-07-30T12:28:55.274Z,28.30
2022-07-30T12:31:22.762Z,28.00
2022-07-30T12:33:50.042Z,27.80
2022-07-30T12:36:36.069Z,27.80
2022-07-30T12:39:06.415Z,27.60
2022-07-30T12:41:47.829Z,27.60
2022-07-30T12:44:45.011Z,27.60
2022-07-30T12:47:24.182Z,27.80
2022-07-30T12:49:53.289Z,28.10
2022-07-30T12:52:48.201Z,28.20
2022-07-30T12:55:15.368Z,28.20
2022-07-30T12:57:56.877Z,28.10
2022-07-30T13:00:52.877Z,28.10
2022-07-30T13:03:29.060Z,27.90
2022-07-30T13:05:57.301Z,27.70
2022-07-30T13:08:46.279Z,27.50
2022-07-30T13:11:14.048Z,27.30
2022-07-30T13:13:41.283Z,27.30
2022-07-30T13:16:08.625Z,27.40
2022-07-30T13:18:36.884Z,27.50
2022-07-30T13:21:06.967Z,27.50
2022-07-30T13:23:34.669Z,27.60
2022-07-30T13:26:01.864Z,27.80
2022-07-30T13:28:29.368Z,27.90
2022-07-30T13:30:57.354Z,27.70
2022-07-30T13:33:24.522Z,27.70
2022-07-30T13:35:51.710Z,27.80
2022-07-30T13:38:18.822Z,27.60
2022-07-30T13:40:46.022Z,27.30
2022-07-30T13:43:13.154Z,27.30
2022-07-30T13:45:40.305Z,27.30
2022-07-30T13:48:07.447Z,27.40
2022-07-30T13:50:34.625Z,27.60
2022-07-30T13:53:02.671Z,27.80
2022-07-30T13:55:30.539Z,27.60
2022-07-30T13:57:58.084Z,27.70
2022-07-30T14:00:25.361Z,27.40
2022-07-30T14:02:52.541Z,27.30
2022-07-30T14:05:19.657Z,27.50
2022-07-30T14:07:46.721Z,27.50
2022-07-30T14:10:13.943Z,27.80
2022-07-30T14:12:41.091Z,28.00
2022-07-30T14:15:10.871Z,28.20
2022-07-30T14:17:40.088Z,28.30
2022-07-30T14:20:07.666Z,28.40
2022-07-30T14:22:34.889Z,28.50
2022-07-30T14:25:02.067Z,28.50
2022-07-30T14:27:29.225Z,28.60
2022-07-30T14:29:56.372Z,28.60
2022-07-30T14:32:23.545Z,28.60
2022-07-30T14:34:51.096Z,28.50
2022-07-30T14:37:18.275Z,28.50
2022-07-30T14:39:45.393Z,28.70
2022-07-30T14:42:12.767Z,28.80
2022-07-30T14:44:39.941Z,28.90
2022-07-30T14:47:07.673Z,28.80
2022-07-30T14:49:35.146Z,28.50
2022-07-30T14:52:02.326Z,28.30
2022-07-30T14:54:31.396Z,28.00
2022-07-30T14:56:58.803Z,27.80
2022-07-30T14:59:27.756Z,27.60
2022-07-30T15:01:55.900Z,27.30
2022-07-30T15:04:23.920Z,27.00
2022-07-30T15:06:51.064Z,26.90
2022-07-30T15:09:19.855Z,26.90
2022-07-30T15:14:34.075Z,27.10
2022-07-30T15:17:04.325Z,27.00
2022-07-30T15:19:32.317Z,26.90
2022-07-30T15:22:02.450Z,26.90
2022-07-30T15:24:31.040Z,26.90
2022-07-30T15:26:58.396Z,27.00
2022-07-30T15:29:27.469Z,27.00
2022-07-30T15:31:54.582Z,26.90
2022-07-30T15:34:22.574Z,26.90
2022-07-30T15:36:49.671Z,27.00
2022-07-30T15:39:16.792Z,27.10
2022-07-30T15:41:44.098Z,27.20
2022-07-30T15:44:13.868Z,27.40
2022-07-30T15:47:47.291Z,27.60
2022-07-30T15:50:15.487Z,27.50
2022-07-30T15:52:42.755Z,27.40
2022-07-30T15:55:10.419Z,27.40
2022-07-30T15:57:37.567Z,27.50
2022-07-30T16:00:08.507Z,27.60
2022-07-30T16:02:43.565Z,27.70
2022-07-30T16:05:14.500Z,28.00
2022-07-30T16:07:42.560Z,28.00
2022-07-30T16:10:10.230Z,28.00
2022-07-30T16:12:37.310Z,27.80
2022-07-30T16:15:04.769Z,27.70
2022-07-30T16:17:31.793Z,27.60
2022-07-30T16:19:59.782Z,27.50
2022-07-30T16:22:27.864Z,27.30
2022-07-30T16:24:54.950Z,27.00
2022-07-30T16:27:22.063Z,26.60
2022-07-30T16:29:49.280Z,26.30
2022-07-30T16:32:16.470Z,26.00
2022-07-30T16:34:44.331Z,25.80
2022-07-30T16:37:11.428Z,25.70
2022-07-30T16:39:38.553Z,25.60
2022-07-30T16:42:06.087Z,25.50
2022-07-30T16:44:34.511Z,25.50
2022-07-30T16:47:01.703Z,25.40
2022-07-30T16:49:30.374Z,25.40
2022-07-30T16:51:57.809Z,25.30
2022-07-30T16:54:24.943Z,25.10
2022-07-30T16:56:53.214Z,25.10
2022-07-30T16:59:20.918Z,25.00
2022-07-30T17:01:48.904Z,25.00
2022-07-30T17:04:16.099Z,25.00
2022-07-30T17:06:44.644Z,24.90
2022-07-30T17:09:15.893Z,24.80
2022-07-30T17:11:52.152Z,24.70
2022-07-30T17:14:22.443Z,24.70
2022-07-30T17:16:50.465Z,24.60
2022-07-30T17:19:17.781Z,24.60
2022-07-30T17:21:44.984Z,24.60
2022-07-30T17:24:13.680Z,24.50
2022-07-30T17:26:43.520Z,24.50
2022-07-30T17:29:15.668Z,24.40
2022-07-30T17:31:44.441Z,24.30
2022-07-30T17:34:14.267Z,24.30
2022-07-30T17:36:42.571Z,24.20
2022-07-30T17:40:28.175Z,23.60
2022-07-30T17:42:26.347Z,24.00
2022-07-30T17:44:53.535Z,24.00
2022-07-30T17:47:20.761Z,23.90
2022-07-30T17:49:47.959Z,23.80
2022-07-30T17:52:15.154Z,23.80
2022-07-30T17:54:42.414Z,23.80
2022-07-30T17:57:09.623Z,23.70
2022-07-30T17:59:36.777Z,23.70
2022-07-30T18:02:05.052Z,23.60
2022-07-30T18:04:54.473Z,23.60
2022-07-30T18:07:23.369Z,23.50
2022-07-30T18:09:50.581Z,23.40
2022-07-30T18:12:17.636Z,23.40
2022-07-30T18:14:44.764Z,23.30
2022-07-30T18:17:14.432Z,23.20
2022-07-30T18:19:42.071Z,23.20
2022-07-30T18:22:38.661Z,23.10
2022-07-30T18:25:08.339Z,23.00
2022-07-30T18:27:47.350Z,23.00
2022-07-30T18:30:14.877Z,22.90
2022-07-30T18:32:42.070Z,22.90
2022-07-30T18:35:13.794Z,22.90
2022-07-30T18:37:42.518Z,22.80
2022-07-30T18:40:10.869Z,22.80
2022-07-30T18:42:38.099Z,22.80
2022-07-30T18:45:05.810Z,22.70
2022-07-30T18:47:32.952Z,22.70
2022-07-30T18:50:00.151Z,22.60
2022-07-30T18:52:27.269Z,22.50
2022-07-30T18:54:54.463Z,22.40
2022-07-30T18:57:21.570Z,22.30
2022-07-30T18:59:48.817Z,22.30
2022-07-30T19:02:15.944Z,22.20
2022-07-30T19:04:43.122Z,22.10
2022-07-30T19:07:10.171Z,22.00
2022-07-30T19:09:37.429Z,21.90
2022-07-30T19:12:05.292Z,21.80
2022-07-30T19:14:32.742Z,21.80
2022-07-30T19:17:46.272Z,21.70
2022-07-30T19:20:13.934Z,21.60
2022-07-30T19:23:12.399Z,21.50
2022-07-30T19:25:39.560Z,21.40
2022-07-30T19:28:06.764Z,21.30
2022-07-30T19:30:34.680Z,21.20
2022-07-30T19:33:10.135Z,21.10
2022-07-30T19:35:41.411Z,21.10
2022-07-30T19:38:09.814Z,21.00
2022-07-30T19:40:39.436Z,20.90
2022-07-30T19:43:10.078Z,20.90
2022-07-30T19:45:47.147Z,20.80
2022-07-30T19:48:29.397Z,20.80
2022-07-30T19:51:04.660Z,20.70
2022-07-30T19:53:34.094Z,20.60
2022-07-30T19:56:08.416Z,20.60
2022-07-30T19:58:38.234Z,20.40
2022-07-30T20:01:08.495Z,20.40
2022-07-30T20:03:36.237Z,20.30
2022-07-30T20:06:07.176Z,20.20
2022-07-30T20:08:38.283Z,20.10
2022-07-30T20:11:07.502Z,20.00
2022-07-30T20:13:45.311Z,19.80
2022-07-30T20:16:15.816Z,19.70
2022-07-30T20:18:44.401Z,19.60
2022-07-30T20:21:15.370Z,19.50
2022-07-30T20:24:38.763Z,19.40
2022-07-30T20:27:10.173Z,19.30
2022-07-30T20:29:52.823Z,19.20
2022-07-30T20:32:21.881Z,19.00
2022-07-30T20:34:49.039Z,19.00
2022-07-30T20:37:22.471Z,18.90
2022-07-30T20:39:50.136Z,18.90
2022-07-30T20:42:17.192Z,18.90
2022-07-30T20:44:49.337Z,18.90
2022-07-30T20:47:33.414Z,18.90
2022-07-30T20:50:09.517Z,18.90
2022-07-30T20:52:39.418Z,18.90
2022-07-30T20:55:14.332Z,18.90
2022-07-30T20:57:51.428Z,18.90
2022-07-30T21:00:28.335Z,18.90
2022-07-30T21:02:56.427Z,18.90
2022-07-30T21:05:27.115Z,18.80
2022-07-30T21:07:54.483Z,18.80
2022-07-30T21:10:23.686Z,18.80
2022-07-30T21:12:53.318Z,18.70
2022-07-30T21:15:26.333Z,18.70
2022-07-30T21:17:53.520Z,18.70
2022-07-30T21:20:28.030Z,18.60
2022-07-30T21:22:56.398Z,18.60
2022-07-30T21:25:32.454Z,18.60
2022-07-30T21:28:02.722Z,18.50
2022-07-30T21:30:31.154Z,18.40
2022-07-30T21:32:59.879Z,18.30
2022-07-30T21:38:14.565Z,18.30
2022-07-30T21:40:41.988Z,18.20
2022-07-30T21:43:11.347Z,18.10
2022-07-30T21:45:39.515Z,18.10
2022-07-30T21:48:07.822Z,18.00
2022-07-30T21:51:06.114Z,18.00
2022-07-30T21:53:45.862Z,18.00
2022-07-30T21:56:14.613Z,17.90
2022-07-30T21:58:42.902Z,17.90
2022-07-30T22:01:16.289Z,17.90
2022-07-30T22:04:04.695Z,17.80
2022-07-30T22:06:38.206Z,17.80
2022-07-30T22:09:18.633Z,17.80
2022-07-30T22:11:54.139Z,17.80
2022-07-30T22:14:25.499Z,17.70
2022-07-30T22:16:53.278Z,17.70
2022-07-30T22:19:21.908Z,17.70
2022-07-30T22:21:50.971Z,17.60
2022-07-30T22:24:29.659Z,17.60
2022-07-30T22:27:09.730Z,17.60
2022-07-30T22:29:42.544Z,17.60
2022-07-30T22:32:09.704Z,17.60
2022-07-30T22:34:37.982Z,17.60
2022-07-30T22:37:09.251Z,17.60
2022-07-30T22:39:50.823Z,17.60
2022-07-30T22:42:20.300Z,17.60
2022-07-30T22:44:51.561Z,17.60
2022-07-30T22:47:21.332Z,17.60
2022-07-30T22:50:08.168Z,17.60
2022-07-30T22:52:44.192Z,17.60
2022-07-30T22:55:24.374Z,17.60
2022-07-30T22:57:52.313Z,17.60
2022-07-30T23:00:27.285Z,17.60
2022-07-30T23:02:56.579Z,17.60
2022-07-30T23:05:24.267Z,17.70
2022-07-30T23:07:51.959Z,17.70
2022-07-30T23:10:20.354Z,17.70
2022-07-30T23:12:27.492Z,18.30
2022-07-30T23:12:53.782Z,17.70
2022-07-30T23:15:21.850Z,17.70
2022-07-30T23:17:48.862Z,17.70
2022-07-30T23:24:34.565Z,17.70
2022-07-30T23:27:02.481Z,17.80
2022-07-30T23:29:29.685Z,17.80
2022-07-30T23:31:57.039Z,17.80
2022-07-30T23:34:24.080Z,17.80
2022-07-30T23:36:51.213Z,17.80
2022-07-30T23:39:19.716Z,17.80
2022-07-30T23:41:46.965Z,17.80
2022-07-30T23:44:13.958Z,17.70
2022-07-30T23:46:40.951Z,17.70
2022-07-30T23:49:08.063Z,17.70
2022-07-30T23:51:35.144Z,17.70
2022-07-30T23:54:03.598Z,17.60
2022-07-30T23:56:30.590Z,17.60
2022-07-30T23:58:57.672Z,17.60
